Latest Weather Observations for Pirlangimpi

IDD60901

Issued at 7:01 pm CST Friday 22 November 2019 (issued every 10 minutes, with the page automatically refreshed every 10 minutes)

About weather observations | Map of Darwin area stations | Latest observations for Darwin area | Other Formats
Station Details ID: 014142 Name: PIRLANGIMPI AIRPORT Lat: -11.40 Lon: 130.42 Height: 18.3 m
Data from the previous 72 hours. | See also: Recent months at Pirlangimpi
Date/Time
CST
Temp
°C
App
Temp
°C
Dew
Point
°C
Rel
Hum
%
Delta-T
°C
Wind Press
QNH
hPa
Press
MSL
hPa
Rain since
9am
mm
Dir  Spd
km/h
Gust
km/h
Spd
kts
Gust
kts
22/07:00pm 29.2 34.1 23.6 72 3.9 WNW 4 9 2 5 1009.3 1009.2 0.0
22/06:30pm 29.8 34.0 23.5 69 4.3 NW 7 15 4 8 1009.2 1009.1 0.0
22/06:00pm 30.3 34.4 23.2 65 4.9 NW 7 17 4 9 1009.2 1009.1 0.0
22/05:30pm 31.3 35.1 23.4 63 5.5 NNW 9 19 5 10 1009.2 1009.1 0.0
22/05:00pm 31.2 34.4 23.0 61 5.6 NNW 11 20 6 11 1009.2 1009.1 0.0
22/04:30pm 32.2 36.0 23.4 59 6.1 NNW 9 20 5 11 1009.1 1009.0 0.0
22/04:00pm 31.6 34.6 22.6 59 6.2 NNW 11 20 6 11 1009.4 1009.3 0.0
22/03:30pm 32.0 35.0 23.3 60 6.0 NW 13 22 7 12 1009.3 1009.2 0.0
22/03:00pm 32.2 35.1 23.2 59 6.2 NW 13 20 7 11 1009.8 1009.7 0.0
22/02:30pm 32.4 36.0 23.1 58 6.4 NW 9 17 5 9 1010.0 1009.9 0.0
22/02:00pm 32.8 36.2 23.4 57 6.5 NNW 11 19 6 10 1010.3 1010.2 0.0
22/01:30pm 32.5 36.0 22.9 57 6.6 NW 9 20 5 11 1010.6 1010.5 0.0
22/01:00pm 32.1 35.5 23.3 59 6.1 NW 11 20 6 11 1010.9 1010.8 0.0
22/12:30pm 31.4 34.6 23.0 61 5.8 NW 11 17 6 9 1011.3 1011.2 0.0
22/12:00pm 31.6 35.4 23.4 61 5.7 WNW 9 19 5 10 1011.6 1011.5 0.0
22/11:30am 31.6 34.9 23.2 61 5.8 NW 11 20 6 11 1011.9 1011.8 0.0
22/11:00am 31.9 35.9 23.7 62 5.7 NW 9 19 5 10 1011.9 1011.8 0.0
22/10:30am 31.2 35.5 23.6 64 5.3 WNW 7 17 4 9 1012.3 1012.2 0.0
22/10:00am 30.4 34.4 22.8 64 5.2 WNW 6 9 3 5 1012.4 1012.3 0.0
22/09:30am 30.6 34.6 22.7 62 5.4 N 6 11 3 6 1012.3 1012.2 0.0
22/09:00am 30.6 35.4 23.5 66 4.9 N 4 9 2 5 1012.2 1012.1 0.4
22/08:30am 29.9 35.2 24.3 72 3.9 NNE 4 7 2 4 1011.9 1011.8 0.4
22/08:00am 28.6 33.6 23.9 75 3.2 N 4 9 2 5 1011.9 1011.8 0.4
22/07:30am 27.2 32.6 24.5 85 1.9 NE 4 6 2 3 1011.6 1011.5 0.4
22/07:00am 24.9 30.1 24.2 96 0.5 NE 4 6 2 3 1011.2 1011.1 0.4
22/06:30am 23.6 28.8 22.9 96 0.5 CALM 0 0 0 0 1010.8 1010.7 0.4
22/06:00am 23.7 29.0 23.0 96 0.5 CALM 0 2 0 1 1010.3 1010.2 0.4
22/05:30am 23.5 27.9 22.8 96 0.5 NE 4 4 2 2 1009.6 1009.5 0.4
22/05:00am 23.1 27.3 22.4 96 0.5 NE 4 4 2 2 1009.2 1009.1 0.4
22/04:30am 22.9 27.0 22.2 96 0.5 NE 4 6 2 3 1008.8 1008.7 0.4
22/04:00am 22.9 27.3 22.1 95 0.5 NE 2 4 1 2 1008.5 1008.4 0.2
22/03:30am 23.1 27.6 22.3 95 0.5 ENE 2 6 1 3 1008.5 1008.4 0.2
22/03:00am 23.1 27.9 22.1 94 0.7 CALM 0 0 0 0 1008.5 1008.4 0.2
22/02:30am 23.4 28.3 22.4 94 0.7 CALM 0 0 0 0 1008.4 1008.3 0.2
22/02:00am 23.6 28.8 22.8 95 0.5 CALM 0 0 0 0 1008.3 1008.2 0.2
22/01:30am 23.7 28.8 22.7 94 0.7 CALM 0 0 0 0 1008.6 1008.5 0.2
22/01:00am 23.7 28.8 22.7 94 0.7 CALM 0 0 0 0 1008.8 1008.7 0.2
22/12:30am 23.8 28.9 22.6 93 0.8 CALM 0 0 0 0 1009.2 1009.1 0.2
22/12:00am 23.6 28.5 22.4 93 0.8 CALM 0 0 0 0 1009.3 1009.2 0.2
 
Date/Time
CST
Temp
°C
App
Temp
°C
Dew
Point
°C
Rel
Hum
%
Delta-T
°C
Wind Press
QNH
hPa
Press
MSL
hPa
Rain since
9am
mm
Dir  Spd
km/h
Gust
km/h
Spd
kts
Gust
kts
21/11:30pm 23.6 28.3 21.9 90 1.1 CALM 0 0 0 0 1009.6 1009.5 0.2
21/11:00pm 23.6 28.3 21.9 90 1.1 CALM 0 0 0 0 1009.9 1009.8 0.2
21/10:30pm 23.5 28.0 21.6 89 1.3 CALM 0 0 0 0 1010.0 1009.9 0.2
21/10:00pm 23.5 27.9 21.4 88 1.4 CALM 0 0 0 0 1010.0 1009.9 0.2
21/09:30pm 23.6 28.0 21.3 87 1.5 CALM 0 0 0 0 1010.0 1009.9 0.2
21/09:00pm 23.7 27.9 21.0 85 1.8 CALM 0 0 0 0 1009.8 1009.7 0.2
21/08:30pm 24.0 28.2 20.9 83 2.0 CALM 0 0 0 0 1009.6 1009.5 0.2
21/08:00pm 24.2 28.0 20.1 78 2.7 CALM 0 0 0 0 1009.3 1009.2 0.2
21/07:30pm 24.9 28.7 20.2 75 3.1 CALM 0 0 0 0 1009.3 1009.2 0.2
21/07:00pm 25.5 29.4 20.3 73 3.4 CALM 0 0 0 0 1009.1 1009.0 0.2
21/06:30pm 25.9 29.4 19.5 68 4.1 CALM 0 2 0 1 1008.5 1008.4 0.2
21/06:00pm 25.9 29.0 19.5 68 4.1 NNW 2 4 1 2 1008.3 1008.2 0.2
21/05:30pm 24.9 27.6 19.5 72 3.5 WNW 4 11 2 6 1008.0 1007.9 0.2
21/05:00pm 23.8 26.0 20.3 81 2.3 SSE 9 28 5 15 1008.9 1008.8 0.2
21/04:48pm 23.3 22.8 19.0 77 2.7 SSW 20 37 11 20 1009.0 1008.9 0.2
21/04:33pm 28.4 28.8 19.1 57 6.0 WSW 15 46 8 25 1009.7 1009.6 0.0
21/04:30pm 31.3 35.9 24.2 66 5.0 WNW 7 17 4 9 1009.3 1009.2 0.0
21/04:00pm 31.6 34.9 24.5 66 5.0 NNW 15 26 8 14 1007.6 1007.5 0.0
21/03:30pm 32.6 37.2 25.4 66 5.1 NW 11 20 6 11 1007.9 1007.8 0.0
21/03:00pm 32.2 35.8 25.0 65 5.1 NW 15 24 8 13 1008.2 1008.1 0.0
21/02:30pm 32.3 36.6 24.9 65 5.2 NW 11 20 6 11 1008.6 1008.5 0.0
21/02:00pm 32.0 36.1 24.6 65 5.2 NW 11 20 6 11 1008.9 1008.8 0.0
21/01:30pm 32.5 36.4 24.3 62 5.8 NW 11 20 6 11 1009.3 1009.2 0.0
21/01:00pm 31.3 35.6 24.2 66 5.0 NW 9 19 5 10 1009.7 1009.6 0.0
21/12:30pm 32.4 37.0 24.2 62 5.7 NW 7 15 4 8 1010.1 1010.0 0.0
21/12:00pm 31.9 35.8 22.9 59 6.2 WNW 7 15 4 8 1010.5 1010.4 0.0
21/11:30am 32.8 36.1 22.6 55 7.0 SSW 9 13 5 7 1010.8 1010.7 0.0
21/11:00am 32.3 36.4 23.0 58 6.4 W 6 11 3 6 1011.1 1011.0 0.0
21/10:30am 31.5 35.7 23.1 61 5.8 WNW 6 11 3 6 1011.5 1011.4 0.0
21/10:00am 30.8 35.2 23.5 65 5.0 WSW 6 9 3 5 1011.5 1011.4 0.0
21/09:30am 30.2 35.3 24.1 70 4.2 WSW 4 6 2 3 1011.6 1011.5 0.0
21/09:00am 29.8 34.7 24.4 73 3.8 SSW 6 7 3 4 1011.6 1011.5 0.0
21/08:30am 29.8 35.2 23.3 68 4.5 CALM 0 0 0 0 1011.2 1011.1 0.0
21/08:00am 28.3 33.6 23.0 73 3.6 CALM 0 0 0 0 1010.9 1010.8 0.0
21/07:30am 26.2 31.5 23.1 83 2.1 CALM 0 0 0 0 1010.6 1010.5 0.0
21/07:00am 24.1 28.7 22.4 90 1.1 NE 2 2 1 1 1010.1 1010.0 0.0
21/06:30am 22.7 26.8 21.5 93 0.8 NE 2 4 1 2 1009.7 1009.6 0.0
21/06:00am 22.6 26.5 21.2 92 0.9 ENE 2 6 1 3 1009.4 1009.3 0.0
21/05:30am 22.8 27.1 21.1 90 1.1 CALM 0 0 0 0 1009.2 1009.1 0.0
21/05:00am 23.0 27.2 20.9 88 1.4 CALM 0 2 0 1 1008.9 1008.8 0.0
21/04:30am 23.2 26.8 21.3 89 1.3 NE 4 4 2 2 1008.7 1008.6 0.0
21/04:00am 23.3 27.1 21.0 87 1.5 NE 2 4 1 2 1008.6 1008.5 0.0
21/03:30am 23.4 27.5 21.5 89 1.3 NE 2 6 1 3 1008.6 1008.5 0.0
21/03:00am 23.3 27.6 21.2 88 1.4 CALM 0 4 0 2 1008.5 1008.4 0.0
21/02:30am 23.4 26.7 20.7 85 1.8 NE 4 4 2 2 1008.6 1008.5 0.0
21/02:00am 23.5 26.6 21.0 86 1.6 NE 6 7 3 4 1008.8 1008.7 0.0
21/01:30am 23.5 26.7 21.2 87 1.5 NE 6 6 3 3 1009.1 1009.0 0.0
21/01:00am 23.6 27.5 21.9 90 1.1 NE 4 4 2 2 1009.3 1009.2 0.0
21/12:30am 23.8 27.4 22.1 90 1.1 NE 6 6 3 3 1009.6 1009.5 0.0
21/12:00am 23.6 28.3 22.0 91 1.1 CALM 0 0 0 0 1009.7 1009.6 0.0
 
Date/Time
CST
Temp
°C
App
Temp
°C
Dew
Point
°C
Rel
Hum
%
Delta-T
°C
Wind Press
QNH
hPa
Press
MSL
hPa
Rain since
9am
mm
Dir  Spd
km/h
Gust
km/h
Spd
kts
Gust
kts
20/11:30pm 23.6 28.3 22.0 91 1.1 CALM 0 0 0 0 1010.1 1010.0 0.0
20/11:00pm 23.5 28.2 21.9 91 1.1 CALM 0 0 0 0 1010.2 1010.1 0.0
20/10:30pm 23.8 28.6 22.1 90 1.1 CALM 0 0 0 0 1010.0 1009.9 0.0
20/10:00pm 24.0 28.8 22.1 89 1.3 CALM 0 0 0 0 1010.1 1010.0 0.0
20/09:30pm 23.9 28.3 21.4 86 1.7 CALM 0 0 0 0 1009.8 1009.7 0.0
20/09:00pm 24.2 28.5 21.1 83 2.0 CALM 0 0 0 0 1009.4 1009.3 0.0
20/08:30pm 24.7 28.8 20.8 79 2.6 CALM 0 2 0 1 1009.2 1009.1 0.0
20/08:00pm 24.6 28.5 20.3 77 2.8 CALM 0 2 0 1 1008.8 1008.7 0.0
20/07:30pm 25.2 29.3 20.7 76 3.0 CALM 0 7 0 4 1008.7 1008.6 0.0
20/07:00pm 25.5 29.2 19.9 71 3.6 CALM 0 2 0 1 1008.7 1008.6 0.0
20/06:30pm 26.1 29.4 19.2 65 4.4 CALM 0 0 0 0 1008.6 1008.5 0.0
20/06:00pm 26.4 28.7 18.5 62 5.0 NNW 4 7 2 4 1008.3 1008.2 0.0
20/05:30pm 26.4 29.0 18.3 61 5.2 SSE 2 9 1 5 1008.2 1008.1 0.0
20/05:00pm 25.6 25.6 19.0 67 4.2 SSW 17 26 9 14 1008.5 1008.4 0.0
20/04:50pm 26.5 25.6 17.8 58 5.5 SSE 19 26 10 14 1008.6 1008.5 0.0
20/04:30pm 31.7 35.8 23.2 60 5.9 NW 7 17 4 9 1007.3 1007.2 0.0
20/04:00pm 32.1 35.5 23.3 59 6.1 NNW 11 20 6 11 1007.2 1007.1 0.0
20/03:30pm 31.9 35.2 23.2 60 6.0 NNW 11 20 6 11 1007.2 1007.1 0.0
20/03:00pm 31.8 34.4 23.3 60 5.9 NW 15 22 8 12 1007.6 1007.5 0.0
20/02:30pm 32.1 35.6 23.6 60 5.9 NW 11 19 6 10 1007.8 1007.7 0.0
20/02:00pm 33.0 37.3 24.2 60 6.2 NW 9 17 5 9 1008.3 1008.2 0.0
20/01:30pm 32.0 35.3 23.8 62 5.7 WNW 13 19 7 10 1008.7 1008.6 0.0
20/01:00pm 32.8 37.1 24.3 61 6.0 NW 9 17 5 9 1009.2 1009.1 0.0
20/12:30pm 32.0 35.7 23.3 60 6.0 WNW 9 17 5 9 1009.6 1009.5 0.0
20/12:00pm 32.2 36.3 24.0 62 5.7 NW 9 17 5 9 1009.9 1009.8 0.0
20/11:30am 32.4 35.9 21.9 54 7.1 W 6 9 3 5 1010.2 1010.1 0.0
20/11:00am 32.5 36.8 22.6 56 6.8 NNE 4 7 2 4 1010.3 1010.2 0.0
20/10:30am 32.3 35.5 20.5 49 7.9 E 4 7 2 4 1010.7 1010.6 0.0
20/10:00am 31.3 34.3 20.9 54 7.0 NNE 6 9 3 5 1010.9 1010.8 0.0
20/09:30am 30.7 34.3 22.0 59 5.9 N 6 9 3 5 1010.9 1010.8 0.0
20/09:00am 29.9 34.2 23.3 67 4.5 ENE 6 9 3 5 1011.0 1010.9 11.8
20/08:30am 28.8 33.5 23.9 75 3.4 NE 6 9 3 5 1010.8 1010.7 11.8
20/08:00am 27.6 33.6 24.2 82 2.4 CALM 0 0 0 0 1010.5 1010.4 11.8
20/07:30am 25.4 30.6 23.5 89 1.3 NE 2 4 1 2 1010.3 1010.2 11.8
20/07:00am 23.6 28.8 22.8 95 0.5 CALM 0 0 0 0 1009.9 1009.8 11.8
20/06:30am 22.6 27.3 21.9 96 0.5 CALM 0 2 0 1 1009.6 1009.5 11.8
20/06:00am 22.6 26.5 21.9 96 0.5 NE 4 6 2 3 1009.4 1009.3 11.8
20/05:30am 22.5 26.4 21.8 96 0.5 NE 4 6 2 3 1009.0 1008.9 11.8
20/05:00am 22.5 27.1 21.7 95 0.5 CALM 0 0 0 0 1008.7 1008.6 11.8
20/04:30am 22.8 26.8 22.1 96 0.5 NE 4 6 2 3 1008.4 1008.3 11.8
20/04:00am 22.9 26.6 22.2 96 0.5 NE 6 6 3 3 1008.4 1008.3 11.8
20/03:30am 22.8 26.8 22.0 95 0.5 NE 4 6 2 3 1008.3 1008.2 11.6
20/03:00am 23.2 28.1 22.4 95 0.5 CALM 0 0 0 0 1008.2 1008.1 11.6
20/02:30am 23.3 28.3 22.5 95 0.5 CALM 0 0 0 0 1008.2 1008.1 11.6
20/02:00am 23.5 28.6 22.7 95 0.5 CALM 0 0 0 0 1008.4 1008.3 11.6
20/01:30am 23.6 28.8 22.9 96 0.5 CALM 0 0 0 0 1008.8 1008.7 11.6
20/01:00am 23.6 28.8 22.8 95 0.5 CALM 0 0 0 0 1009.1 1009.0 11.6
20/12:30am 23.7 28.6 23.0 96 0.5 NE 2 6 1 3 1009.4 1009.3 11.6
20/12:00am 23.8 28.3 23.0 95 0.5 NE 4 6 2 3 1009.5 1009.4 11.6
 
Date/Time
CST
Temp
°C
App
Temp
°C
Dew
Point
°C
Rel
Hum
%
Delta-T
°C
Wind Press
QNH
hPa
Press
MSL
hPa
Rain since
9am
mm
Dir  Spd
km/h
Gust
km/h
Spd
kts
Gust
kts
19/11:30pm 23.9 28.8 23.0 95 0.6 NE 2 6 1 3 1009.8 1009.7 11.6
19/11:00pm 24.0 29.3 23.1 95 0.6 CALM 0 0 0 0 1010.1 1010.0 11.6
19/10:30pm 23.9 29.1 22.9 94 0.7 CALM 0 0 0 0 1010.0 1009.9 11.6
19/10:00pm 24.1 29.4 23.1 94 0.7 CALM 0 0 0 0 1010.1 1010.0 11.6
19/09:30pm 24.2 29.5 23.0 93 0.8 CALM 0 0 0 0 1010.3 1010.2 11.6
19/09:00pm 24.6 30.0 23.2 92 0.9 CALM 0 0 0 0 1010.1 1010.0 11.6
19/08:30pm 24.5 28.7 23.1 92 0.9 NE 6 6 3 3 1010.0 1009.9 11.6
19/08:00pm 25.0 29.8 22.9 88 1.4 ENE 2 4 1 2 1009.9 1009.8 11.6
19/07:30pm 25.2 30.0 22.9 87 1.6 E 2 4 1 2 1009.5 1009.4 11.6

Latest Capital City Observations: Canberra | Sydney | Melbourne | Brisbane | Adelaide | Perth | Hobart | Darwin

Other formats

Comma delimited format used in spreadsheet applications
http://www.bom.gov.au/fwo/IDD60901/IDD60901.94119.axf

JavaScript Object Notation format (JSON) in row-major order
http://www.bom.gov.au/fwo/IDD60901/IDD60901.94119.json

Data quality

Most of these data are generated automatically and are frequently updated. Quality checks on data are not normally performed. It is possible for incorrect values to appear. Refer to information at About Latest Weather Observations and please check the disclaimer before using these data.